Latest METARs, TAFs and NOTAMs for CYFB


---------------------------------------------------------------------------
	(OBSERVATIONS)
CYFB 221400Z 33008KT 20SM IC DRSN FEW023 SCT180 BKN220 OVC260
    M30/M34 A2987 RMK SC1AC3CI1CI3 SLP121=
CYFB 221300Z 35013KT 20SM IC DRSN FEW035 SCT180 SCT220 OVC260
    M30/M34 A2986 RMK SC1AC2CI1CI4 SLP119=
CYFB 221200Z 36014KT 20SM IC FEW035 BKN260 M30/M35 A2985 RMK
    SC1CI5 SC TR SLP115=
---------------------------------------------------------------------------
	(FC)
Sorry, FC For CYFB Not Found
---------------------------------------------------------------------------
	(TERMINAL AREA FORECAST)
CYFB 221138Z 2212/2312 32012KT P6SM IC FEW040 SCT250
    FM230300 30006KT P6SM SCT200
    RMK NXT FCST BY 221800Z=
---------------------------------------------------------------------------
	(NOTAMS)


CYFB 01/011 YFB- FROBAY VOR 117.4 UNMONITORED. 20 JAN 23:00 2018
    UNTIL 20 APR 23:59 2018. CREATED: 20 JAN 23:01 2018

CYFB 02/007 CYFB QUEBEC RDO RCO 5680 U/S. 23 FEB 17:00 2018 UNTIL
    25 FEB 01:00 2018. CREATED: 22 FEB 14:38 2018

---------------------------------------------------------------------------